sensor_id;sensor_type;location;lat;lon;timestamp;pressure;altitude;pressure_sealevel;temperature;humidity
52361;BME280;38294;42.966;1.608;2022-09-13T00:00:34;96606.44;;;24.42;72.94
52361;BME280;38294;42.966;1.608;2022-09-13T00:03:00;96616.25;;;24.55;72.58
52361;BME280;38294;42.966;1.608;2022-09-13T00:05:26;96611.06;;;24.27;73.97
52361;BME280;38294;42.966;1.608;2022-09-13T00:07:52;96625.31;;;24.87;71.87
52361;BME280;38294;42.966;1.608;2022-09-13T00:10:18;96612.03;;;25.05;71.47
52361;BME280;38294;42.966;1.608;2022-09-13T00:12:44;96623.22;;;25.33;70.48
52361;BME280;38294;42.966;1.608;2022-09-13T00:15:09;96624.22;;;25.95;67.23
52361;BME280;38294;42.966;1.608;2022-09-13T00:17:36;96609.50;;;25.77;67.83
52361;BME280;38294;42.966;1.608;2022-09-13T00:20:02;96594.28;;;25.69;68.02
52361;BME280;38294;42.966;1.608;2022-09-13T00:22:28;96592.34;;;25.42;68.80
52361;BME280;38294;42.966;1.608;2022-09-13T00:24:53;96592.75;;;24.71;71.77
52361;BME280;38294;42.966;1.608;2022-09-13T00:27:19;96602.16;;;25.37;69.26
52361;BME280;38294;42.966;1.608;2022-09-13T00:29:45;96607.66;;;25.23;69.67
52361;BME280;38294;42.966;1.608;2022-09-13T00:32:11;96597.97;;;25.24;69.30
52361;BME280;38294;42.966;1.608;2022-09-13T00:34:36;96613.16;;;26.25;65.59
52361;BME280;38294;42.966;1.608;2022-09-13T00:37:02;96621.88;;;26.50;64.07
52361;BME280;38294;42.966;1.608;2022-09-13T00:39:28;96618.47;;;25.48;66.38
52361;BME280;38294;42.966;1.608;2022-09-13T00:41:53;96620.00;;;26.33;62.74
52361;BME280;38294;42.966;1.608;2022-09-13T00:47:14;96621.59;;;27.40;59.38
52361;BME280;38294;42.966;1.608;2022-09-13T00:49:42;96625.63;;;27.24;58.96
52361;BME280;38294;42.966;1.608;2022-09-13T00:52:13;96636.09;;;27.09;59.20
52361;BME280;38294;42.966;1.608;2022-09-13T00:54:45;96610.78;;;25.67;65.08
52361;BME280;38294;42.966;1.608;2022-09-13T00:57:16;96607.38;;;26.90;60.65
52361;BME280;38294;42.966;1.608;2022-09-13T00:59:47;96599.25;;;27.22;59.31
52361;BME280;38294;42.966;1.608;2022-09-13T01:02:14;96609.88;;;26.50;61.16
52361;BME280;38294;42.966;1.608;2022-09-13T01:04:40;96619.06;;;26.50;61.10
52361;BME280;38294;42.966;1.608;2022-09-13T01:07:09;96621.34;;;26.99;59.70
52361;BME280;38294;42.966;1.608;2022-09-13T01:09:37;96613.09;;;26.81;60.40
52361;BME280;38294;42.966;1.608;2022-09-13T01:12:47;96610.72;;;27.33;58.42
52361;BME280;38294;42.966;1.608;2022-09-13T01:15:14;96607.44;;;26.19;61.86
52361;BME280;38294;42.966;1.608;2022-09-13T01:17:40;96597.28;;;26.22;62.49
52361;BME280;38294;42.966;1.608;2022-09-13T01:20:08;96592.31;;;26.79;59.94
52361;BME280;38294;42.966;1.608;2022-09-13T01:31:10;96580.94;;;26.97;59.13
52361;BME280;38294;42.966;1.608;2022-09-13T01:36:21;96571.47;;;26.71;60.49
52361;BME280;38294;42.966;1.608;2022-09-13T01:39:03;96568.88;;;26.43;61.96
52361;BME280;38294;42.966;1.608;2022-09-13T01:47:14;96577.56;;;26.31;61.02
52361;BME280;38294;42.966;1.608;2022-09-13T01:55:32;96556.47;;;26.88;59.51
52361;BME280;38294;42.966;1.608;2022-09-13T02:00:58;96559.88;;;25.08;65.52
52361;BME280;38294;42.966;1.608;2022-09-13T02:03:37;96551.81;;;25.43;65.18
52361;BME280;38294;42.966;1.608;2022-09-13T02:06:11;96552.31;;;25.98;62.86
52361;BME280;38294;42.966;1.608;2022-09-13T02:08:42;96552.69;;;26.38;61.28
52361;BME280;38294;42.966;1.608;2022-09-13T02:11:14;96550.38;;;26.75;59.73
52361;BME280;38294;42.966;1.608;2022-09-13T02:14:04;96545.75;;;26.87;59.11
52361;BME280;38294;42.966;1.608;2022-09-13T02:16:44;96531.72;;;26.48;60.19
52361;BME280;38294;42.966;1.608;2022-09-13T02:19:19;96535.84;;;26.15;61.79
52361;BME280;38294;42.966;1.608;2022-09-13T02:21:51;96522.72;;;26.59;60.15
52361;BME280;38294;42.966;1.608;2022-09-13T02:24:21;96522.59;;;26.53;60.31
52361;BME280;38294;42.966;1.608;2022-09-13T02:26:51;96523.38;;;26.54;60.12
52361;BME280;38294;42.966;1.608;2022-09-13T02:29:20;96511.91;;;26.28;60.53
52361;BME280;38294;42.966;1.608;2022-09-13T02:31:54;96510.97;;;26.46;59.91
52361;BME280;38294;42.966;1.608;2022-09-13T02:34:24;96508.81;;;26.41;60.07
52361;BME280;38294;42.966;1.608;2022-09-13T02:36:55;96502.56;;;25.98;60.67
52361;BME280;38294;42.966;1.608;2022-09-13T02:39:25;96498.88;;;25.36;63.24
52361;BME280;38294;42.966;1.608;2022-09-13T02:41:55;96495.34;;;25.59;63.16
52361;BME280;38294;42.966;1.608;2022-09-13T02:44:37;96498.94;;;26.31;60.10
52361;BME280;38294;42.966;1.608;2022-09-13T02:57:46;96488.09;;;25.43;62.60
52361;BME280;38294;42.966;1.608;2022-09-13T03:00:13;96486.34;;;25.55;61.94
52361;BME280;38294;42.966;1.608;2022-09-13T03:02:40;96494.50;;;26.15;60.67
52361;BME280;38294;42.966;1.608;2022-09-13T03:05:08;96495.72;;;25.52;62.12
52361;BME280;38294;42.966;1.608;2022-09-13T03:07:34;96493.81;;;25.58;62.03
52361;BME280;38294;42.966;1.608;2022-09-13T03:10:03;96491.84;;;26.21;60.51
52361;BME280;38294;42.966;1.608;2022-09-13T03:15:23;96489.81;;;26.21;59.23
52361;BME280;38294;42.966;1.608;2022-09-13T03:18:17;96481.66;;;26.61;59.06
52361;BME280;38294;42.966;1.608;2022-09-13T03:27:02;96499.28;;;26.62;58.16
52361;BME280;38294;42.966;1.608;2022-09-13T03:30:06;96485.81;;;26.51;58.05
52361;BME280;38294;42.966;1.608;2022-09-13T03:32:54;96485.38;;;26.29;58.43
52361;BME280;38294;42.966;1.608;2022-09-13T03:40:38;96463.59;;;26.00;59.73
52361;BME280;38294;42.966;1.608;2022-09-13T03:45:35;96462.72;;;25.38;61.75
52361;BME280;38294;42.966;1.608;2022-09-13T03:48:03;96453.63;;;25.76;60.84
52361;BME280;38294;42.966;1.608;2022-09-13T03:50:30;96452.56;;;25.73;59.92
52361;BME280;38294;42.966;1.608;2022-09-13T03:53:03;96457.56;;;26.17;59.15
52361;BME280;38294;42.966;1.608;2022-09-13T03:55:31;96461.84;;;26.03;59.10
52361;BME280;38294;42.966;1.608;2022-09-13T03:57:57;96470.00;;;25.44;60.42
52361;BME280;38294;42.966;1.608;2022-09-13T04:00:23;96454.88;;;24.67;64.00
52361;BME280;38294;42.966;1.608;2022-09-13T04:02:48;96458.84;;;25.35;61.23
52361;BME280;38294;42.966;1.608;2022-09-13T04:05:15;96463.84;;;25.31;61.37
52361;BME280;38294;42.966;1.608;2022-09-13T04:07:40;96478.91;;;25.10;61.91
52361;BME280;38294;42.966;1.608;2022-09-13T04:10:06;96478.34;;;25.30;61.53
52361;BME280;38294;42.966;1.608;2022-09-13T04:12:32;96457.06;;;25.23;61.30
52361;BME280;38294;42.966;1.608;2022-09-13T04:14:58;96470.50;;;25.10;61.84
52361;BME280;38294;42.966;1.608;2022-09-13T04:17:23;96473.38;;;25.25;60.95
52361;BME280;38294;42.966;1.608;2022-09-13T04:19:49;96477.13;;;25.22;61.19
52361;BME280;38294;42.966;1.608;2022-09-13T04:22:14;96469.16;;;24.78;62.95
52361;BME280;38294;42.966;1.608;2022-09-13T04:24:40;96464.34;;;25.30;61.23
52361;BME280;38294;42.966;1.608;2022-09-13T04:27:07;96468.22;;;25.32;61.21
52361;BME280;38294;42.966;1.608;2022-09-13T04:29:33;96471.03;;;24.72;63.44
52361;BME280;38294;42.966;1.608;2022-09-13T04:31:59;96476.09;;;25.43;60.99
52361;BME280;38294;42.966;1.608;2022-09-13T04:34:24;96471.69;;;25.18;61.26
52361;BME280;38294;42.966;1.608;2022-09-13T04:36:51;96465.16;;;25.54;60.81
52361;BME280;38294;42.966;1.608;2022-09-13T04:39:20;96458.03;;;24.51;63.99
52361;BME280;38294;42.966;1.608;2022-09-13T04:41:47;96467.56;;;24.26;65.65
52361;BME280;38294;42.966;1.608;2022-09-13T04:44:14;96461.09;;;24.71;63.77
52361;BME280;38294;42.966;1.608;2022-09-13T04:46:41;96463.50;;;25.05;61.58
52361;BME280;38294;42.966;1.608;2022-09-13T04:49:08;96469.34;;;25.26;61.24
52361;BME280;38294;42.966;1.608;2022-09-13T04:51:34;96463.88;;;24.89;61.74
52361;BME280;38294;42.966;1.608;2022-09-13T04:53:59;96470.72;;;24.97;61.52
52361;BME280;38294;42.966;1.608;2022-09-13T04:56:25;96465.41;;;25.32;60.67
52361;BME280;38294;42.966;1.608;2022-09-13T04:58:52;96463.41;;;25.24;61.49
52361;BME280;38294;42.966;1.608;2022-09-13T05:01:18;96456.44;;;25.19;61.06
52361;BME280;38294;42.966;1.608;2022-09-13T05:03:44;96462.94;;;24.92;61.72
52361;BME280;38294;42.966;1.608;2022-09-13T05:06:12;96466.84;;;25.61;60.00
52361;BME280;38294;42.966;1.608;2022-09-13T05:08:38;96468.66;;;24.98;61.03
52361;BME280;38294;42.966;1.608;2022-09-13T05:11:05;96454.88;;;24.67;62.83
52361;BME280;38294;42.966;1.608;2022-09-13T05:13:31;96453.91;;;24.79;61.87
52361;BME280;38294;42.966;1.608;2022-09-13T05:16:03;96452.59;;;25.07;61.10
52361;BME280;38294;42.966;1.608;2022-09-13T05:18:31;96450.56;;;25.41;59.72
52361;BME280;38294;42.966;1.608;2022-09-13T05:20:58;96461.88;;;25.46;59.37
52361;BME280;38294;42.966;1.608;2022-09-13T05:23:26;96474.38;;;25.45;59.40
52361;BME280;38294;42.966;1.608;2022-09-13T05:26:03;96470.47;;;25.76;58.15
52361;BME280;38294;42.966;1.608;2022-09-13T05:28:32;96457.28;;;25.67;58.37
52361;BME280;38294;42.966;1.608;2022-09-13T05:31:09;96453.44;;;25.79;58.09
52361;BME280;38294;42.966;1.608;2022-09-13T05:33:37;96443.22;;;25.43;59.05
52361;BME280;38294;42.966;1.608;2022-09-13T05:36:06;96450.13;;;25.66;58.56
52361;BME280;38294;42.966;1.608;2022-09-13T05:38:32;96450.97;;;25.25;58.91
52361;BME280;38294;42.966;1.608;2022-09-13T05:40:59;96450.84;;;25.43;58.28
52361;BME280;38294;42.966;1.608;2022-09-13T05:43:28;96457.69;;;25.18;58.37
52361;BME280;38294;42.966;1.608;2022-09-13T05:48:27;96447.47;;;24.37;61.33
52361;BME280;38294;42.966;1.608;2022-09-13T05:50:53;96452.00;;;24.94;59.12
52361;BME280;38294;42.966;1.608;2022-09-13T05:53:18;96449.16;;;25.45;57.50
52361;BME280;38294;42.966;1.608;2022-09-13T05:55:44;96480.44;;;25.20;58.32
52361;BME280;38294;42.966;1.608;2022-09-13T05:58:10;96473.88;;;25.47;57.12
52361;BME280;38294;42.966;1.608;2022-09-13T06:00:35;96457.41;;;25.73;56.27
52361;BME280;38294;42.966;1.608;2022-09-13T06:03:01;96463.22;;;24.94;58.71
52361;BME280;38294;42.966;1.608;2022-09-13T06:05:26;96457.69;;;25.51;57.40
52361;BME280;38294;42.966;1.608;2022-09-13T06:07:52;96465.59;;;25.62;56.76
52361;BME280;38294;42.966;1.608;2022-09-13T06:10:17;96460.09;;;25.67;56.83
52361;BME280;38294;42.966;1.608;2022-09-13T06:12:45;96457.63;;;25.60;57.17
52361;BME280;38294;42.966;1.608;2022-09-13T06:15:10;96451.75;;;25.58;56.97
52361;BME280;38294;42.966;1.608;2022-09-13T06:17:36;96429.84;;;25.71;56.67
52361;BME280;38294;42.966;1.608;2022-09-13T06:20:02;96434.00;;;25.76;56.60
52361;BME280;38294;42.966;1.608;2022-09-13T06:22:28;96432.16;;;24.83;59.45
52361;BME280;38294;42.966;1.608;2022-09-13T06:24:58;96426.84;;;25.18;59.14
52361;BME280;38294;42.966;1.608;2022-09-13T06:27:23;96440.47;;;25.01;59.09
52361;BME280;38294;42.966;1.608;2022-09-13T06:29:49;96435.78;;;25.07;58.39
52361;BME280;38294;42.966;1.608;2022-09-13T06:32:14;96429.09;;;25.05;58.29
52361;BME280;38294;42.966;1.608;2022-09-13T06:34:40;96413.13;;;25.53;56.85
52361;BME280;38294;42.966;1.608;2022-09-13T06:37:06;96417.44;;;25.30;57.74
52361;BME280;38294;42.966;1.608;2022-09-13T06:39:32;96416.25;;;24.89;59.02
52361;BME280;38294;42.966;1.608;2022-09-13T06:41:59;96406.50;;;25.65;56.76
52361;BME280;38294;42.966;1.608;2022-09-13T06:44:24;96399.31;;;25.40;57.36
52361;BME280;38294;42.966;1.608;2022-09-13T06:46:51;96405.97;;;24.86;59.29
52361;BME280;38294;42.966;1.608;2022-09-13T06:49:17;96391.66;;;24.75;60.06
52361;BME280;38294;42.966;1.608;2022-09-13T06:51:42;96384.81;;;24.76;59.53
52361;BME280;38294;42.966;1.608;2022-09-13T06:54:08;96400.75;;;25.36;57.22
52361;BME280;38294;42.966;1.608;2022-09-13T06:56:36;96402.53;;;26.10;54.89
52361;BME280;38294;42.966;1.608;2022-09-13T06:59:05;96389.44;;;25.92;54.58
52361;BME280;38294;42.966;1.608;2022-09-13T07:01:37;96389.88;;;25.76;54.53
52361;BME280;38294;42.966;1.608;2022-09-13T07:04:11;96390.91;;;26.02;53.63
52361;BME280;38294;42.966;1.608;2022-09-13T07:06:45;96406.75;;;26.44;51.31
52361;BME280;38294;42.966;1.608;2022-09-13T07:09:14;96400.38;;;26.87;49.53
52361;BME280;38294;42.966;1.608;2022-09-13T07:11:41;96414.09;;;27.00;48.55
52361;BME280;38294;42.966;1.608;2022-09-13T07:14:07;96417.31;;;26.93;48.43
52361;BME280;38294;42.966;1.608;2022-09-13T07:16:35;96434.94;;;26.64;49.39
52361;BME280;38294;42.966;1.608;2022-09-13T07:19:04;96428.16;;;26.56;49.42
52361;BME280;38294;42.966;1.608;2022-09-13T07:21:31;96418.53;;;27.56;46.85
52361;BME280;38294;42.966;1.608;2022-09-13T07:23:57;96418.81;;;27.78;46.15
52361;BME280;38294;42.966;1.608;2022-09-13T07:26:24;96410.06;;;27.76;47.19
52361;BME280;38294;42.966;1.608;2022-09-13T07:28:53;96412.47;;;27.83;46.84
52361;BME280;38294;42.966;1.608;2022-09-13T07:31:24;96407.50;;;27.38;48.37
52361;BME280;38294;42.966;1.608;2022-09-13T07:33:54;96410.94;;;27.62;46.97
52361;BME280;38294;42.966;1.608;2022-09-13T07:36:21;96417.03;;;27.60;46.67
52361;BME280;38294;42.966;1.608;2022-09-13T07:38:47;96414.38;;;27.17;46.28
52361;BME280;38294;42.966;1.608;2022-09-13T07:41:19;96416.88;;;27.14;47.03
52361;BME280;38294;42.966;1.608;2022-09-13T07:43:46;96427.59;;;27.45;48.10
52361;BME280;38294;42.966;1.608;2022-09-13T07:46:14;96420.72;;;26.82;50.54
52361;BME280;38294;42.966;1.608;2022-09-13T07:48:42;96433.34;;;27.22;50.08
52361;BME280;38294;42.966;1.608;2022-09-13T07:53:36;96409.53;;;27.37;49.59
52361;BME280;38294;42.966;1.608;2022-09-13T07:56:04;96404.81;;;26.94;50.89
52361;BME280;38294;42.966;1.608;2022-09-13T07:58:32;96408.59;;;26.47;51.97
52361;BME280;38294;42.966;1.608;2022-09-13T08:01:08;96409.88;;;26.46;52.76
52361;BME280;38294;42.966;1.608;2022-09-13T08:03:36;96406.28;;;25.92;53.35
52361;BME280;38294;42.966;1.608;2022-09-13T08:06:02;96401.13;;;26.73;51.37
52361;BME280;38294;42.966;1.608;2022-09-13T08:08:29;96409.41;;;26.09;52.82
52361;BME280;38294;42.966;1.608;2022-09-13T08:10:55;96413.78;;;26.10;52.63
52361;BME280;38294;42.966;1.608;2022-09-13T08:13:21;96404.94;;;26.85;50.17
52361;BME280;38294;42.966;1.608;2022-09-13T08:15:47;96416.91;;;27.90;47.47
52361;BME280;38294;42.966;1.608;2022-09-13T08:18:14;96414.81;;;26.36;50.74
52361;BME280;38294;42.966;1.608;2022-09-13T08:20:40;96416.06;;;27.29;48.84
52361;BME280;38294;42.966;1.608;2022-09-13T08:23:06;96423.03;;;27.33;48.60
52361;BME280;38294;42.966;1.608;2022-09-13T08:25:33;96421.28;;;26.86;51.26
52361;BME280;38294;42.966;1.608;2022-09-13T08:28:06;96436.97;;;26.63;52.51
52361;BME280;38294;42.966;1.608;2022-09-13T08:30:35;96449.19;;;26.60;51.84
52361;BME280;38294;42.966;1.608;2022-09-13T08:33:05;96459.47;;;26.78;51.12
52361;BME280;38294;42.966;1.608;2022-09-13T08:35:32;96461.66;;;27.68;48.41
52361;BME280;38294;42.966;1.608;2022-09-13T08:37:58;96453.00;;;26.87;52.07
52361;BME280;38294;42.966;1.608;2022-09-13T08:40:29;96444.75;;;26.83;52.98
52361;BME280;38294;42.966;1.608;2022-09-13T08:43:20;96451.53;;;26.91;53.41
52361;BME280;38294;42.966;1.608;2022-09-13T08:46:00;96453.94;;;26.98;53.90
52361;BME280;38294;42.966;1.608;2022-09-13T08:48:35;96451.63;;;26.97;54.14
52361;BME280;38294;42.966;1.608;2022-09-13T08:51:08;96457.56;;;26.84;54.83
52361;BME280;38294;42.966;1.608;2022-09-13T08:53:47;96456.69;;;27.28;53.88
52361;BME280;38294;42.966;1.608;2022-09-13T08:59:05;96456.41;;;27.26;54.50
52361;BME280;38294;42.966;1.608;2022-09-13T09:01:56;96449.34;;;27.16;55.28
52361;BME280;38294;42.966;1.608;2022-09-13T09:04:33;96455.00;;;26.57;56.95
52361;BME280;38294;42.966;1.608;2022-09-13T09:07:02;96462.66;;;27.00;55.22
52361;BME280;38294;42.966;1.608;2022-09-13T09:09:36;96471.31;;;27.81;53.38
52361;BME280;38294;42.966;1.608;2022-09-13T09:12:17;96472.19;;;27.52;54.42
52361;BME280;38294;42.966;1.608;2022-09-13T09:14:58;96483.78;;;27.60;54.45
52361;BME280;38294;42.966;1.608;2022-09-13T09:17:31;96475.09;;;27.43;54.62
52361;BME280;38294;42.966;1.608;2022-09-13T09:20:10;96466.00;;;27.48;53.75
52361;BME280;38294;42.966;1.608;2022-09-13T09:22:38;96455.38;;;27.23;55.29
52361;BME280;38294;42.966;1.608;2022-09-13T09:25:04;96471.94;;;28.77;50.79
52361;BME280;38294;42.966;1.608;2022-09-13T09:27:30;96468.91;;;28.14;51.95
52361;BME280;38294;42.966;1.608;2022-09-13T09:29:57;96468.31;;;28.51;50.65
52361;BME280;38294;42.966;1.608;2022-09-13T09:38:40;96458.03;;;28.99;49.77
52361;BME280;38294;42.966;1.608;2022-09-13T09:40:46;96455.13;;;28.88;47.96
52361;BME280;38294;42.966;1.608;2022-09-13T09:43:34;96455.56;;;29.44;45.70
52361;BME280;38294;42.966;1.608;2022-09-13T09:46:04;96461.50;;;29.88;44.17
52361;BME280;38294;42.966;1.608;2022-09-13T09:48:40;96445.22;;;29.72;45.16
52361;BME280;38294;42.966;1.608;2022-09-13T09:51:11;96444.34;;;29.55;43.25
52361;BME280;38294;42.966;1.608;2022-09-13T09:53:43;96453.69;;;30.31;41.78
52361;BME280;38294;42.966;1.608;2022-09-13T09:58:45;96449.53;;;30.10;39.82
52361;BME280;38294;42.966;1.608;2022-09-13T10:01:26;96440.19;;;30.74;37.02
52361;BME280;38294;42.966;1.608;2022-09-13T10:06:28;96438.72;;;32.19;31.02
52361;BME280;38294;42.966;1.608;2022-09-13T10:09:26;96437.22;;;32.65;30.75
52361;BME280;38294;42.966;1.608;2022-09-13T10:12:00;96438.25;;;32.62;30.64
52361;BME280;38294;42.966;1.608;2022-09-13T10:19:54;96422.91;;;33.41;27.13
52361;BME280;38294;42.966;1.608;2022-09-13T10:22:22;96423.59;;;33.53;27.29
52361;BME280;38294;42.966;1.608;2022-09-13T10:24:48;96413.97;;;33.61;27.60
52361;BME280;38294;42.966;1.608;2022-09-13T10:27:53;96419.59;;;34.10;27.45
52361;BME280;38294;42.966;1.608;2022-09-13T10:30:32;96414.72;;;33.02;32.17
52361;BME280;38294;42.966;1.608;2022-09-13T10:33:01;96425.03;;;30.88;40.58
52361;BME280;38294;42.966;1.608;2022-09-13T10:35:28;96418.56;;;30.43;42.40
52361;BME280;38294;42.966;1.608;2022-09-13T10:37:54;96417.59;;;30.96;40.76
52361;BME280;38294;42.966;1.608;2022-09-13T10:40:32;96426.84;;;30.75;41.87
52361;BME280;38294;42.966;1.608;2022-09-13T10:43:01;96419.09;;;30.58;42.19
52361;BME280;38294;42.966;1.608;2022-09-13T10:45:29;96417.34;;;31.16;39.87
52361;BME280;38294;42.966;1.608;2022-09-13T10:48:18;96428.38;;;31.26;39.36
52361;BME280;38294;42.966;1.608;2022-09-13T10:51:45;96423.47;;;31.59;38.94
52361;BME280;38294;42.966;1.608;2022-09-13T10:56:34;96436.06;;;30.53;41.65
52361;BME280;38294;42.966;1.608;2022-09-13T10:59:20;96435.59;;;31.15;40.27
52361;BME280;38294;42.966;1.608;2022-09-13T11:05:19;96437.63;;;31.32;40.18
52361;BME280;38294;42.966;1.608;2022-09-13T11:14:03;96439.06;;;30.33;46.13
52361;BME280;38294;42.966;1.608;2022-09-13T11:16:47;96430.16;;;30.62;44.76
52361;BME280;38294;42.966;1.608;2022-09-13T11:19:35;96430.44;;;30.81;44.56
52361;BME280;38294;42.966;1.608;2022-09-13T11:30:23;96433.53;;;30.88;41.79
52361;BME280;38294;42.966;1.608;2022-09-13T11:36:12;96421.97;;;31.19;41.41
52361;BME280;38294;42.966;1.608;2022-09-13T11:45:03;96429.38;;;30.67;43.03
52361;BME280;38294;42.966;1.608;2022-09-13T11:47:47;96426.06;;;31.46;42.17
52361;BME280;38294;42.966;1.608;2022-09-13T11:51:00;96428.13;;;30.90;43.43
52361;BME280;38294;42.966;1.608;2022-09-13T11:55:54;96430.19;;;31.12;42.36
52361;BME280;38294;42.966;1.608;2022-09-13T11:58:33;96452.84;;;31.06;42.53
52361;BME280;38294;42.966;1.608;2022-09-13T12:01:09;96451.56;;;30.96;39.32
52361;BME280;38294;42.966;1.608;2022-09-13T12:03:47;96441.28;;;31.04;39.83
52361;BME280;38294;42.966;1.608;2022-09-13T12:09:24;96429.72;;;32.15;36.54
52361;BME280;38294;42.966;1.608;2022-09-13T12:11:57;96439.16;;;30.66;41.33
52361;BME280;38294;42.966;1.608;2022-09-13T12:14:28;96447.41;;;31.42;40.33
52361;BME280;38294;42.966;1.608;2022-09-13T12:16:58;96455.94;;;31.53;40.08
52361;BME280;38294;42.966;1.608;2022-09-13T12:19:39;96465.81;;;32.15;38.99
52361;BME280;38294;42.966;1.608;2022-09-13T12:22:07;96484.75;;;31.18;42.16
52361;BME280;38294;42.966;1.608;2022-09-13T12:24:39;96476.66;;;29.91;46.84
52361;BME280;38294;42.966;1.608;2022-09-13T12:27:15;96468.84;;;29.75;49.75
52361;BME280;38294;42.966;1.608;2022-09-13T12:29:50;96461.75;;;29.85;50.13
52361;BME280;38294;42.966;1.608;2022-09-13T12:32:16;96464.34;;;28.89;53.16
52361;BME280;38294;42.966;1.608;2022-09-13T12:34:50;96462.69;;;29.76;50.34
52361;BME280;38294;42.966;1.608;2022-09-13T12:43:08;96439.97;;;31.16;43.81
52361;BME280;38294;42.966;1.608;2022-09-13T12:45:46;96433.75;;;31.62;42.73
52361;BME280;38294;42.966;1.608;2022-09-13T12:51:39;96422.72;;;31.26;33.92
52361;BME280;38294;42.966;1.608;2022-09-13T12:57:24;96410.56;;;32.79;30.58
52361;BME280;38294;42.966;1.608;2022-09-13T13:00:09;96420.13;;;33.11;33.48
52361;BME280;38294;42.966;1.608;2022-09-13T13:05:26;96420.22;;;32.54;28.57
52361;BME280;38294;42.966;1.608;2022-09-13T13:08:02;96418.81;;;33.07;28.23
52361;BME280;38294;42.966;1.608;2022-09-13T13:10:34;96416.59;;;33.30;27.38
52361;BME280;38294;42.966;1.608;2022-09-13T13:13:14;96417.59;;;33.32;26.57
52361;BME280;38294;42.966;1.608;2022-09-13T13:18:26;96432.81;;;32.17;31.05
52361;BME280;38294;42.966;1.608;2022-09-13T13:23:28;96424.06;;;32.62;26.28
52361;BME280;38294;42.966;1.608;2022-09-13T13:26:01;96430.94;;;33.13;25.62
52361;BME280;38294;42.966;1.608;2022-09-13T13:33:48;96434.25;;;33.71;24.94
52361;BME280;38294;42.966;1.608;2022-09-13T13:36:25;96426.38;;;34.25;24.76
52361;BME280;38294;42.966;1.608;2022-09-13T13:38:54;96426.56;;;34.14;24.40
52361;BME280;38294;42.966;1.608;2022-09-13T13:57:25;96403.19;;;34.40;24.91
52361;BME280;38294;42.966;1.608;2022-09-13T13:59:55;96389.88;;;33.68;26.10
52361;BME280;38294;42.966;1.608;2022-09-13T14:02:30;96388.34;;;34.28;25.77
52361;BME280;38294;42.966;1.608;2022-09-13T14:05:06;96378.38;;;33.01;26.42
52361;BME280;38294;42.966;1.608;2022-09-13T14:13:25;96394.50;;;34.33;25.24
52361;BME280;38294;42.966;1.608;2022-09-13T14:21:03;96372.06;;;34.29;25.00
52361;BME280;38294;42.966;1.608;2022-09-13T14:23:31;96347.25;;;34.29;24.58
52361;BME280;38294;42.966;1.608;2022-09-13T14:25:58;96339.38;;;34.36;24.20
52361;BME280;38294;42.966;1.608;2022-09-13T14:28:25;96324.88;;;34.02;25.00
52361;BME280;38294;42.966;1.608;2022-09-13T14:30:56;96320.16;;;33.67;26.96
52361;BME280;38294;42.966;1.608;2022-09-13T14:33:26;96326.25;;;33.95;26.30
52361;BME280;38294;42.966;1.608;2022-09-13T14:36:07;96311.97;;;34.19;26.88
52361;BME280;38294;42.966;1.608;2022-09-13T14:38:34;96321.38;;;33.71;26.51
52361;BME280;38294;42.966;1.608;2022-09-13T14:41:21;96297.25;;;33.59;28.09
52361;BME280;38294;42.966;1.608;2022-09-13T14:43:48;96323.38;;;33.34;28.72
52361;BME280;38294;42.966;1.608;2022-09-13T14:46:38;96299.78;;;33.20;26.61
52361;BME280;38294;42.966;1.608;2022-09-13T14:49:19;96298.91;;;33.92;24.92
52361;BME280;38294;42.966;1.608;2022-09-13T14:51:54;96293.66;;;34.34;25.86
52361;BME280;38294;42.966;1.608;2022-09-13T14:54:50;96308.72;;;34.28;24.77
52361;BME280;38294;42.966;1.608;2022-09-13T14:57:28;96300.25;;;34.42;24.02
52361;BME280;38294;42.966;1.608;2022-09-13T15:00:04;96304.13;;;34.76;23.74
52361;BME280;38294;42.966;1.608;2022-09-13T15:02:37;96309.97;;;34.33;24.32
52361;BME280;38294;42.966;1.608;2022-09-13T15:05:11;96312.94;;;35.04;23.61
52361;BME280;38294;42.966;1.608;2022-09-13T15:07:38;96307.50;;;35.19;23.54
52361;BME280;38294;42.966;1.608;2022-09-13T15:10:31;96299.72;;;35.33;23.04
52361;BME280;38294;42.966;1.608;2022-09-13T15:17:58;96328.78;;;34.36;25.07
52361;BME280;38294;42.966;1.608;2022-09-13T15:20:27;96328.19;;;34.75;24.31
52361;BME280;38294;42.966;1.608;2022-09-13T15:22:53;96342.97;;;34.55;25.02
52361;BME280;38294;42.966;1.608;2022-09-13T15:25:23;96331.94;;;33.95;25.43
52361;BME280;38294;42.966;1.608;2022-09-13T15:27:50;96329.63;;;33.26;25.40
52361;BME280;38294;42.966;1.608;2022-09-13T15:30:26;96332.72;;;33.96;24.75
52361;BME280;38294;42.966;1.608;2022-09-13T15:35:40;96326.44;;;34.21;25.87
52361;BME280;38294;42.966;1.608;2022-09-13T15:38:20;96316.41;;;34.34;25.36
52361;BME280;38294;42.966;1.608;2022-09-13T15:41:00;96332.03;;;34.27;25.70
52361;BME280;38294;42.966;1.608;2022-09-13T15:43:26;96338.38;;;33.53;27.76
52361;BME280;38294;42.966;1.608;2022-09-13T15:45:52;96329.81;;;33.10;27.74
52361;BME280;38294;42.966;1.608;2022-09-13T15:48:27;96340.28;;;33.20;27.37
52361;BME280;38294;42.966;1.608;2022-09-13T15:51:13;96331.69;;;33.02;27.89
52361;BME280;38294;42.966;1.608;2022-09-13T15:53:44;96323.78;;;33.19;27.55
52361;BME280;38294;42.966;1.608;2022-09-13T15:56:14;96319.09;;;33.46;27.03
52361;BME280;38294;42.966;1.608;2022-09-13T15:58:40;96308.03;;;32.64;27.89
52361;BME280;38294;42.966;1.608;2022-09-13T16:01:05;96311.16;;;32.55;28.21
52361;BME280;38294;42.966;1.608;2022-09-13T16:03:31;96306.28;;;32.55;28.74
52361;BME280;38294;42.966;1.608;2022-09-13T16:05:57;96315.09;;;33.11;27.53
52361;BME280;38294;42.966;1.608;2022-09-13T16:08:24;96334.41;;;32.83;28.30
52361;BME280;38294;42.966;1.608;2022-09-13T16:10:50;96339.22;;;32.94;28.01
52361;BME280;38294;42.966;1.608;2022-09-13T16:13:15;96320.56;;;33.04;28.00
52361;BME280;38294;42.966;1.608;2022-09-13T16:15:41;96318.00;;;32.76;27.65